createdAt,value
2018-11-20T00:00:54.918Z,923.7
2018-11-20T00:01:54.806Z,923.8
2018-11-20T00:02:54.713Z,923.7
2018-11-20T00:03:54.599Z,923.5
2018-11-20T00:04:54.490Z,923.7
2018-11-20T00:05:54.416Z,923.7
2018-11-20T00:06:54.316Z,922.5
2018-11-20T00:07:54.228Z,923.7
2018-11-20T00:08:54.581Z,923.8
2018-11-20T00:09:54.484Z,923.7
2018-11-20T00:10:54.372Z,923.7
2018-11-20T00:11:54.298Z,923.8
2018-11-20T00:12:54.242Z,923.6
2018-11-20T00:13:54.140Z,923.6
2018-11-20T00:14:54.032Z,923.6
2018-11-20T00:15:53.907Z,923.6
2018-11-20T00:16:53.811Z,923.5
2018-11-20T00:17:53.708Z,923.6
2018-11-20T00:18:54.116Z,923.5
2018-11-20T00:19:54.017Z,923.7
2018-11-20T00:20:53.912Z,923.6
2018-11-20T00:21:53.813Z,923.7
2018-11-20T00:22:53.710Z,921.8
2018-11-20T00:23:53.608Z,923.4
2018-11-20T00:24:53.496Z,923.4
2018-11-20T00:25:53.394Z,923.6
2018-11-20T00:26:53.288Z,923.6
2018-11-20T00:27:53.190Z,923.7
2018-11-20T00:28:53.526Z,923.5
2018-11-20T00:29:53.418Z,923.7
2018-11-20T00:30:53.314Z,923.7
2018-11-20T00:31:53.225Z,923.7
2018-11-20T00:32:53.174Z,923.7
2018-11-20T00:33:53.060Z,923.7
2018-11-20T00:34:53.000Z,923.6
2018-11-20T00:35:52.908Z,923.7
2018-11-20T00:36:52.800Z,923.6
2018-11-20T00:37:52.688Z,923.6
2018-11-20T00:38:53.039Z,923.6
2018-11-20T00:39:52.790Z,923.5
2018-11-20T00:40:52.553Z,923.6
2018-11-20T00:41:52.291Z,923.5
2018-11-20T00:42:52.039Z,923.7
2018-11-20T00:43:51.772Z,923.7
2018-11-20T00:44:51.515Z,923.6
2018-11-20T00:45:51.249Z,923.5
2018-11-20T00:46:51.019Z,923.6
2018-11-20T00:47:50.750Z,923.6
2018-11-20T00:48:51.109Z,923.3
2018-11-20T00:49:50.992Z,923.7
2018-11-20T00:50:50.894Z,923.6
2018-11-20T00:51:50.794Z,923.6
2018-11-20T00:52:50.773Z,923.5
2018-11-20T00:53:50.672Z,923.5
2018-11-20T00:54:50.578Z,923.6
2018-11-20T00:55:50.608Z,923.6
2018-11-20T00:56:50.514Z,923.6
2018-11-20T00:57:50.413Z,923.7
2018-11-20T00:58:50.775Z,923.7
2018-11-20T00:59:50.506Z,923.6
2018-11-20T01:00:50.250Z,923.6
2018-11-20T01:01:49.992Z,923.6
2018-11-20T01:02:49.730Z,923.5
2018-11-20T01:03:49.481Z,923.5
2018-11-20T01:04:49.207Z,923.5
2018-11-20T01:05:48.936Z,923.6
2018-11-20T01:06:48.713Z,923.4
2018-11-20T01:07:48.439Z,923.5
2018-11-20T01:08:48.766Z,923.5
2018-11-20T01:09:48.746Z,923.4
2018-11-20T01:10:48.663Z,923.5
2018-11-20T01:11:48.560Z,923.5
2018-11-20T01:12:48.450Z,923.4
2018-11-20T01:13:48.354Z,923.3
2018-11-20T01:14:48.254Z,923.4
2018-11-20T01:15:48.179Z,923.4
2018-11-20T01:16:48.302Z,923.4
2018-11-20T01:17:48.210Z,923.4
2018-11-20T01:18:48.539Z,923.2
2018-11-20T01:19:48.270Z,923.4
2018-11-20T01:20:48.005Z,923.4
2018-11-20T01:21:47.769Z,923.4
2018-11-20T01:22:47.497Z,923.3
2018-11-20T01:23:47.247Z,923.3
2018-11-20T01:24:46.974Z,923.3
2018-11-20T01:25:46.715Z,923.2
2018-11-20T01:26:46.464Z,923.2
2018-11-20T01:27:46.220Z,923.3
2018-11-20T01:28:46.375Z,923.1
2018-11-20T01:29:46.096Z,923.2
2018-11-20T01:30:45.860Z,923.2
2018-11-20T01:31:45.604Z,923.2
2018-11-20T01:32:45.327Z,923.2
2018-11-20T01:33:45.089Z,923.1
2018-11-20T01:34:44.831Z,923.1
2018-11-20T01:35:44.572Z,923.1
2018-11-20T01:36:44.308Z,923
2018-11-20T01:37:44.031Z,923.2
2018-11-20T01:38:44.361Z,923
2018-11-20T01:39:44.264Z,923.1
2018-11-20T01:40:44.153Z,923.3
2018-11-20T01:41:44.065Z,923.2
2018-11-20T01:42:43.973Z,923.2
2018-11-20T01:43:43.870Z,923.2
2018-11-20T01:44:43.789Z,923
2018-11-20T01:45:43.677Z,923
2018-11-20T01:46:43.598Z,923.1
2018-11-20T01:47:43.497Z,922.8
2018-11-20T01:48:43.870Z,923.1
2018-11-20T01:49:43.804Z,923
2018-11-20T01:50:43.704Z,923
2018-11-20T01:51:43.615Z,923
2018-11-20T01:52:43.509Z,922.9
2018-11-20T01:53:43.404Z,923
2018-11-20T01:54:43.339Z,922.8
2018-11-20T01:55:43.270Z,922.1
2018-11-20T01:56:43.195Z,922.9
2018-11-20T01:57:43.115Z,922.9
2018-11-20T01:58:43.444Z,922.8
2018-11-20T01:59:43.320Z,922.7
2018-11-20T02:00:43.198Z,922.8
2018-11-20T02:01:43.116Z,922.6
2018-11-20T02:02:43.001Z,922.7
2018-11-20T02:03:42.895Z,922.5
2018-11-20T02:04:42.792Z,922.5
2018-11-20T02:05:42.694Z,922.7
2018-11-20T02:06:42.600Z,922.6
2018-11-20T02:07:42.524Z,921
2018-11-20T02:08:42.827Z,922.7
2018-11-20T02:09:42.714Z,922.8
2018-11-20T02:10:42.641Z,922.8
2018-11-20T02:11:42.539Z,922.6
2018-11-20T02:12:42.444Z,922.6
2018-11-20T02:13:42.385Z,922.8
2018-11-20T02:14:42.294Z,922.7
2018-11-20T02:15:42.208Z,922.7
2018-11-20T02:16:42.102Z,922.6
2018-11-20T02:17:42.015Z,922.7
2018-11-20T02:18:42.345Z,922.6
2018-11-20T02:19:42.259Z,922.7
2018-11-20T02:20:42.147Z,922.7
2018-11-20T02:21:42.034Z,922.7
2018-11-20T02:22:41.920Z,922.7
2018-11-20T02:23:41.810Z,922.7
2018-11-20T02:24:41.711Z,920.4
2018-11-20T02:25:41.598Z,922.5
2018-11-20T02:26:41.484Z,922.7
2018-11-20T02:27:41.375Z,922.6
2018-11-20T02:28:41.674Z,922.7
2018-11-20T02:29:41.601Z,922.6
2018-11-20T02:30:41.539Z,922.5
2018-11-20T02:31:41.426Z,922.6
2018-11-20T02:32:41.334Z,922.6
2018-11-20T02:33:41.238Z,922.5
2018-11-20T02:34:41.141Z,922.6
2018-11-20T02:35:41.042Z,922.6
2018-11-20T02:36:40.980Z,921.9
2018-11-20T02:37:40.865Z,922.4
2018-11-20T02:38:41.197Z,922.4
2018-11-20T02:39:41.083Z,922.4
2018-11-20T02:40:40.998Z,922.4
2018-11-20T02:41:40.898Z,922.5
2018-11-20T02:42:40.825Z,922.6
2018-11-20T02:43:40.742Z,922.5
2018-11-20T02:44:40.638Z,922.5
2018-11-20T02:45:40.600Z,922.5
2018-11-20T02:46:40.479Z,922.5
2018-11-20T02:47:40.426Z,922.4
2018-11-20T02:48:40.769Z,922.6
2018-11-20T02:49:40.675Z,922.5
2018-11-20T02:50:40.614Z,922.5
2018-11-20T02:51:40.518Z,922.6
2018-11-20T02:52:40.426Z,922.5
2018-11-20T02:53:40.359Z,922.4
2018-11-20T02:54:40.254Z,922.5
2018-11-20T02:55:40.160Z,922.5
2018-11-20T02:56:40.085Z,922.6
2018-11-20T02:57:39.988Z,922.6
2018-11-20T02:58:40.312Z,922.5
2018-11-20T02:59:40.240Z,922.5
2018-11-20T03:00:40.153Z,922.6
2018-11-20T03:01:40.043Z,922.6
2018-11-20T03:02:39.956Z,922.7
2018-11-20T03:03:40.458Z,922.7
2018-11-20T03:04:40.430Z,922.5
2018-11-20T03:05:40.339Z,922.6
2018-11-20T03:06:40.246Z,922.5
2018-11-20T03:07:40.133Z,922.5
2018-11-20T03:08:40.468Z,921
2018-11-20T03:09:40.399Z,922.7
2018-11-20T03:10:40.283Z,922.5
2018-11-20T03:11:40.176Z,922.5
2018-11-20T03:12:40.088Z,922.7
2018-11-20T03:13:39.995Z,921.8
2018-11-20T03:14:39.899Z,922.6
2018-11-20T03:15:39.829Z,922.7
2018-11-20T03:16:39.716Z,922.7
2018-11-20T03:17:39.622Z,922.6
2018-11-20T03:18:39.962Z,922.6
2018-11-20T03:19:39.865Z,922.7
2018-11-20T03:20:39.769Z,922.7
2018-11-20T03:21:39.683Z,922.7
2018-11-20T03:22:39.593Z,922.7
2018-11-20T03:23:39.519Z,922.7
2018-11-20T03:24:39.429Z,922.5
2018-11-20T03:25:39.327Z,922.7
2018-11-20T03:26:39.255Z,922.7
2018-11-20T03:27:39.149Z,922.5
2018-11-20T03:28:39.488Z,922.6
2018-11-20T03:29:39.385Z,922.6
2018-11-20T03:30:39.283Z,922.5
2018-11-20T03:31:39.193Z,921.6
2018-11-20T03:32:39.121Z,922.7
2018-11-20T03:33:39.027Z,922.6
2018-11-20T03:34:38.922Z,922.6
2018-11-20T03:35:38.819Z,922.5
2018-11-20T03:36:38.725Z,922.6
2018-11-20T03:37:38.617Z,921.6
2018-11-20T03:38:38.996Z,922.5
2018-11-20T03:39:38.908Z,922.5
2018-11-20T03:40:38.813Z,922.5
2018-11-20T03:41:38.715Z,922.5
2018-11-20T03:42:38.610Z,922.5
2018-11-20T03:43:38.545Z,922.5
2018-11-20T03:44:38.435Z,922.4
2018-11-20T03:45:38.322Z,922.5
2018-11-20T03:46:38.221Z,922.4
2018-11-20T03:47:38.351Z,922.5
2018-11-20T03:48:38.718Z,922.3
2018-11-20T03:49:38.654Z,922.4
2018-11-20T03:50:38.547Z,922.3
2018-11-20T03:51:38.456Z,922.4
2018-11-20T03:52:38.345Z,922.4
2018-11-20T03:53:38.288Z,922.2
2018-11-20T03:54:38.174Z,922.3
2018-11-20T03:55:38.107Z,922.2
2018-11-20T03:56:38.003Z,922.2
2018-11-20T03:57:37.891Z,922.4
2018-11-20T03:58:38.114Z,922.3
2018-11-20T03:59:37.847Z,922.3
2018-11-20T04:00:37.594Z,922.5
2018-11-20T04:01:37.321Z,922.3
2018-11-20T04:02:37.045Z,922.2
2018-11-20T04:03:36.782Z,922.3
2018-11-20T04:04:36.513Z,922.4
2018-11-20T04:05:36.258Z,922.3
2018-11-20T04:06:36.007Z,922.4
2018-11-20T04:07:35.744Z,922.1
2018-11-20T04:08:36.107Z,922.4
2018-11-20T04:09:35.986Z,922.3
2018-11-20T04:10:35.882Z,922.4
2018-11-20T04:11:35.779Z,922.4
2018-11-20T04:12:35.723Z,922.4
2018-11-20T04:13:35.601Z,922.4
2018-11-20T04:14:35.489Z,922.4
2018-11-20T04:15:35.373Z,922.3
2018-11-20T04:16:35.273Z,922.3
2018-11-20T04:17:35.278Z,922.3
2018-11-20T04:18:35.894Z,922.3
2018-11-20T04:19:35.779Z,922.4
2018-11-20T04:20:35.654Z,922.3
2018-11-20T04:21:35.569Z,922.3
2018-11-20T04:22:35.462Z,922.3
2018-11-20T04:23:35.391Z,922.2
2018-11-20T04:24:35.292Z,922.3
2018-11-20T04:25:35.199Z,922.2
2018-11-20T04:26:35.111Z,922.2
2018-11-20T04:27:35.020Z,922.2
2018-11-20T04:28:35.346Z,922.1
2018-11-20T04:29:35.265Z,922
2018-11-20T04:30:35.155Z,922
2018-11-20T04:31:35.048Z,922.1
2018-11-20T04:32:34.970Z,922.1
2018-11-20T04:33:34.873Z,922.1
2018-11-20T04:34:34.785Z,922
2018-11-20T04:35:34.714Z,922.1
2018-11-20T04:36:34.601Z,922
2018-11-20T04:37:34.505Z,920
2018-11-20T04:38:34.645Z,922
2018-11-20T04:39:34.365Z,922
2018-11-20T04:40:34.117Z,922
2018-11-20T04:41:33.848Z,922
2018-11-20T04:42:33.575Z,922.1
2018-11-20T04:43:33.299Z,921.8
2018-11-20T04:44:33.005Z,922
2018-11-20T04:45:32.726Z,921.9
2018-11-20T04:46:32.499Z,921.8
2018-11-20T04:47:32.239Z,922
2018-11-20T04:48:32.550Z,922
2018-11-20T04:49:32.444Z,922
2018-11-20T04:50:32.337Z,921.1
2018-11-20T04:51:32.237Z,922
2018-11-20T04:52:32.207Z,922.1
2018-11-20T04:53:32.102Z,922
2018-11-20T04:54:32.003Z,921.9
2018-11-20T04:55:31.892Z,922
2018-11-20T04:56:31.807Z,921.9
2018-11-20T04:57:32.308Z,921.9
2018-11-20T04:58:32.775Z,921.9
2018-11-20T04:59:32.685Z,921.8
2018-11-20T05:00:32.576Z,921.8
2018-11-20T05:01:32.477Z,921.9
2018-11-20T05:02:32.404Z,921.9
2018-11-20T05:03:32.327Z,921.9
2018-11-20T05:04:32.222Z,921.7
2018-11-20T05:05:32.132Z,921.9
2018-11-20T05:06:32.213Z,921.8
2018-11-20T05:07:32.157Z,921.9
2018-11-20T05:08:32.531Z,921.9
2018-11-20T05:09:32.251Z,921.7
2018-11-20T05:10:31.992Z,921.9
2018-11-20T05:11:31.730Z,922
2018-11-20T05:12:31.470Z,921.3
2018-11-20T05:13:31.241Z,922
2018-11-20T05:14:30.989Z,922
2018-11-20T05:15:30.721Z,922
2018-11-20T05:16:30.455Z,921.9
2018-11-20T05:17:30.175Z,921.9
2018-11-20T05:18:30.517Z,922
2018-11-20T05:19:30.465Z,921.8
2018-11-20T05:20:30.370Z,921.8
2018-11-20T05:21:30.305Z,921.9
2018-11-20T05:22:30.206Z,921.8
2018-11-20T05:23:30.106Z,921.5
2018-11-20T05:24:30.006Z,921.8
2018-11-20T05:25:29.913Z,921.9
2018-11-20T05:26:29.828Z,921.9
2018-11-20T05:27:29.717Z,921.9
2018-11-20T05:28:30.485Z,921.9
2018-11-20T05:29:30.377Z,922
2018-11-20T05:30:30.309Z,922
2018-11-20T05:31:30.242Z,921.8
2018-11-20T05:32:30.135Z,921.9
2018-11-20T05:33:30.032Z,921.8
2018-11-20T05:34:29.943Z,921.9
2018-11-20T05:35:29.844Z,921.9
2018-11-20T05:36:29.785Z,921.9
2018-11-20T05:37:29.675Z,921.9
2018-11-20T05:38:30.064Z,921.9
2018-11-20T05:39:29.961Z,921.9
2018-11-20T05:40:31.057Z,921.8
2018-11-20T05:41:31.044Z,921.7
2018-11-20T05:42:30.942Z,921.7
2018-11-20T05:43:30.851Z,921.7
2018-11-20T05:44:30.739Z,921.6
2018-11-20T05:45:30.630Z,921.8
2018-11-20T05:46:30.528Z,921.8
2018-11-20T05:47:30.438Z,921.8
2018-11-20T05:48:30.744Z,921.8
2018-11-20T05:49:30.656Z,921.8
2018-11-20T05:50:30.562Z,921.7
2018-11-20T05:51:30.456Z,921.7
2018-11-20T05:52:30.351Z,921.8
2018-11-20T05:53:30.279Z,921.7
2018-11-20T05:54:30.196Z,921.6
2018-11-20T05:55:30.144Z,921.7
2018-11-20T05:56:30.032Z,921.8
2018-11-20T05:57:29.923Z,921.7
2018-11-20T05:58:30.680Z,921.7
2018-11-20T05:59:30.618Z,921.8
2018-11-20T06:00:30.502Z,921.8
2018-11-20T06:01:30.443Z,921.6
2018-11-20T06:02:30.346Z,921.6
2018-11-20T06:03:30.256Z,920.3
2018-11-20T06:04:30.148Z,921.6
2018-11-20T06:05:30.048Z,921.7
2018-11-20T06:06:29.944Z,921.8
2018-11-20T06:07:29.869Z,921.7
2018-11-20T06:08:30.186Z,921.8
2018-11-20T06:09:29.959Z,921.8
2018-11-20T06:10:29.706Z,921.8
2018-11-20T06:11:29.482Z,921.8
2018-11-20T06:12:29.320Z,921.7
2018-11-20T06:13:29.046Z,921.7
2018-11-20T06:14:28.774Z,921.8
2018-11-20T06:15:28.526Z,921.8
2018-11-20T06:16:28.275Z,921.8
2018-11-20T06:17:28.012Z,921.8
2018-11-20T06:18:28.370Z,921.8
2018-11-20T06:19:28.274Z,921.7
2018-11-20T06:20:28.211Z,921.6
2018-11-20T06:21:28.103Z,921.6
2018-11-20T06:22:27.988Z,921.7
2018-11-20T06:23:27.866Z,921.7
2018-11-20T06:24:27.762Z,921.7
2018-11-20T06:25:27.668Z,921.7
2018-11-20T06:26:27.589Z,921.7
2018-11-20T06:27:27.488Z,921.7
2018-11-20T06:28:27.996Z,921.7
2018-11-20T06:29:27.911Z,921.7
2018-11-20T06:30:27.818Z,921.7
2018-11-20T06:31:27.739Z,921.7
2018-11-20T06:32:27.658Z,921.7
2018-11-20T06:33:27.544Z,921.6
2018-11-20T06:34:28.268Z,921.5
2018-11-20T06:35:28.258Z,921.5
2018-11-20T06:36:28.162Z,921.6
2018-11-20T06:37:28.085Z,921.6
2018-11-20T06:38:28.405Z,921.7
2018-11-20T06:39:28.310Z,921.6
2018-11-20T06:40:28.262Z,921.6
2018-11-20T06:41:28.764Z,921.5
2018-11-20T06:42:28.654Z,921.5
2018-11-20T06:43:28.590Z,921.8
2018-11-20T06:44:28.476Z,921.7
2018-11-20T06:45:28.410Z,921.8
2018-11-20T06:46:28.320Z,921.7
2018-11-20T06:47:28.242Z,921.7
2018-11-20T06:48:28.562Z,921.7
2018-11-20T06:49:28.477Z,921.8
2018-11-20T06:50:28.378Z,921.7
2018-11-20T06:51:28.273Z,921.8
2018-11-20T06:52:28.170Z,921.6
2018-11-20T06:53:29.160Z,921.6
2018-11-20T06:54:29.159Z,921.5
2018-11-20T06:55:29.070Z,921.6
2018-11-20T06:56:28.981Z,921.7
2018-11-20T06:57:29.734Z,921.5
2018-11-20T06:58:30.268Z,921.6
2018-11-20T06:59:30.198Z,921.6
2018-11-20T07:00:30.126Z,921.7
2018-11-20T07:01:30.637Z,921.7
2018-11-20T07:02:30.542Z,921.6
2018-11-20T07:03:30.454Z,921.6
2018-11-20T07:04:30.372Z,921.7
2018-11-20T07:05:30.308Z,921.7
2018-11-20T07:06:30.206Z,921.7
2018-11-20T07:07:31.922Z,921.6
2018-11-20T07:08:34.235Z,921.7
2018-11-20T07:09:33.981Z,921.6
2018-11-20T07:10:33.773Z,921.6
2018-11-20T07:11:33.509Z,921.6
2018-11-20T07:12:33.241Z,921.6
2018-11-20T07:13:32.976Z,921.7
2018-11-20T07:14:32.706Z,921.7
2018-11-20T07:15:33.726Z,921.6
2018-11-20T07:16:34.186Z,921.6
2018-11-20T07:17:33.952Z,921.7
2018-11-20T07:18:34.294Z,921.7
2018-11-20T07:19:34.196Z,921.7
2018-11-20T07:20:34.117Z,921.7
2018-11-20T07:21:34.019Z,921.6
2018-11-20T07:22:34.902Z,921.6
2018-11-20T07:23:34.883Z,919.9
2018-11-20T07:24:34.833Z,921.7
2018-11-20T07:25:34.767Z,921.7
2018-11-20T07:26:34.666Z,921.7
2018-11-20T07:27:34.555Z,921.7
2018-11-20T07:28:34.908Z,921.6
2018-11-20T07:29:35.187Z,921.7
2018-11-20T07:30:35.275Z,921.6
2018-11-20T07:31:35.620Z,921.7
2018-11-20T07:32:35.426Z,921.7
2018-11-20T07:33:35.186Z,921.7
2018-11-20T07:34:34.948Z,921.6
2018-11-20T07:35:34.712Z,921.7
2018-11-20T07:36:34.823Z,921.5
2018-11-20T07:37:34.573Z,921.6
2018-11-20T07:38:35.549Z,921.6
2018-11-20T07:39:35.462Z,921.6
2018-11-20T07:40:35.350Z,921.6
2018-11-20T07:41:35.250Z,921.6
2018-11-20T07:42:35.137Z,921.7
2018-11-20T07:43:35.904Z,921.5
2018-11-20T07:44:35.906Z,921.6
2018-11-20T07:45:35.822Z,921.6
2018-11-20T07:46:35.745Z,921.4
2018-11-20T07:47:35.680Z,921.5
2018-11-20T07:48:36.155Z,921.5
2018-11-20T07:49:35.896Z,921.6
2018-11-20T07:50:35.629Z,921.6
2018-11-20T07:51:35.673Z,921.6
2018-11-20T07:52:35.474Z,921.4
2018-11-20T07:53:35.231Z,921.6
2018-11-20T07:54:34.973Z,921.6
2018-11-20T07:55:35.286Z,921.6
2018-11-20T07:56:35.195Z,921.5
2018-11-20T07:57:34.930Z,921.6
2018-11-20T07:58:35.276Z,921.6
2018-11-20T07:59:35.182Z,921.5
2018-11-20T08:00:35.076Z,921.5
2018-11-20T08:01:34.958Z,921.6
2018-11-20T08:02:34.857Z,921.6
2018-11-20T08:03:34.761Z,921.5
2018-11-20T08:04:34.682Z,921.5
2018-11-20T08:05:34.583Z,921.5
2018-11-20T08:06:34.501Z,921.5
2018-11-20T08:07:34.399Z,921.5
2018-11-20T08:08:35.647Z,921.5
2018-11-20T08:09:36.092Z,921.5
2018-11-20T08:10:36.006Z,921.3
2018-11-20T08:11:35.893Z,921.5
2018-11-20T08:12:35.790Z,921.5
2018-11-20T08:13:35.690Z,921.5
2018-11-20T08:14:35.589Z,921.5
2018-11-20T08:15:36.084Z,921.5
2018-11-20T08:16:36.051Z,921.6
2018-11-20T08:17:35.948Z,921.4
2018-11-20T08:18:36.427Z,921.6
2018-11-20T08:19:36.321Z,921.5
2018-11-20T08:20:36.241Z,921.5
2018-11-20T08:21:36.126Z,921.6
2018-11-20T08:22:36.051Z,921.5
2018-11-20T08:23:35.944Z,921.5
2018-11-20T08:24:35.846Z,921.7
2018-11-20T08:25:36.052Z,921.7
2018-11-20T08:26:36.336Z,921.6
2018-11-20T08:27:36.345Z,921.7
2018-11-20T08:28:36.689Z,921.7
2018-11-20T08:29:36.593Z,921.8
2018-11-20T08:30:36.536Z,921.6
2018-11-20T08:31:36.481Z,921.8
2018-11-20T08:32:36.407Z,921.8
2018-11-20T08:33:36.773Z,921.8
2018-11-20T08:34:36.738Z,921.9
2018-11-20T08:35:36.659Z,921.9
2018-11-20T08:36:36.559Z,921.8
2018-11-20T08:37:36.477Z,921.9
2018-11-20T08:38:36.645Z,921.9
2018-11-20T08:39:36.375Z,921.8
2018-11-20T08:40:36.109Z,921.9
2018-11-20T08:41:35.844Z,921.8
2018-11-20T08:42:35.603Z,921.7
2018-11-20T08:43:35.331Z,921.8
2018-11-20T08:44:35.071Z,921.8
2018-11-20T08:45:34.823Z,921.8
2018-11-20T08:46:34.550Z,921.7
2018-11-20T08:47:34.378Z,921.9
2018-11-20T08:48:34.949Z,922
2018-11-20T08:49:34.696Z,922
2018-11-20T08:50:34.459Z,921.9
2018-11-20T08:51:34.208Z,922
2018-11-20T08:52:33.953Z,922.1
2018-11-20T08:53:33.867Z,921.9
2018-11-20T08:54:33.686Z,922
2018-11-20T08:55:33.429Z,922.1
2018-11-20T08:56:33.163Z,922.1
2018-11-20T08:57:32.918Z,922
2018-11-20T08:58:33.316Z,922
2018-11-20T08:59:33.246Z,922
2018-11-20T09:00:33.152Z,921.9
2018-11-20T09:01:33.066Z,921.8
2018-11-20T09:02:34.675Z,921.9
2018-11-20T09:03:34.736Z,922
2018-11-20T09:04:34.649Z,921.9
2018-11-20T09:05:34.557Z,921.9
2018-11-20T09:06:34.470Z,921.9
2018-11-20T09:07:34.386Z,921.9
2018-11-20T09:08:34.746Z,921.8
2018-11-20T09:09:34.689Z,921.9
2018-11-20T09:10:35.314Z,921.9
2018-11-20T09:11:35.290Z,921.9
2018-11-20T09:12:35.197Z,921.9
2018-11-20T09:13:35.114Z,922.1
2018-11-20T09:14:35.033Z,922
2018-11-20T09:15:34.944Z,922
2018-11-20T09:16:34.844Z,921.9
2018-11-20T09:17:34.762Z,922.1
2018-11-20T09:18:35.991Z,922
2018-11-20T09:19:35.915Z,922.1
2018-11-20T09:20:35.836Z,922.1
2018-11-20T09:21:35.755Z,922
2018-11-20T09:22:35.664Z,921.9
2018-11-20T09:23:35.785Z,921.8
2018-11-20T09:24:35.704Z,921.9
2018-11-20T09:25:36.142Z,921.7
2018-11-20T09:26:36.103Z,921.9
2018-11-20T09:27:36.008Z,921.7
2018-11-20T09:28:36.980Z,921.9
2018-11-20T09:29:36.920Z,921.9
2018-11-20T09:30:36.847Z,921.8
2018-11-20T09:31:36.748Z,921.8
2018-11-20T09:32:36.650Z,921.7
2018-11-20T09:33:36.556Z,921.9
2018-11-20T09:34:37.783Z,921.8
2018-11-20T09:35:39.784Z,921.7
2018-11-20T09:36:39.932Z,921.9
2018-11-20T09:37:39.812Z,921.8
2018-11-20T09:38:40.167Z,921.8
2018-11-20T09:39:40.082Z,921.7
2018-11-20T09:40:40.011Z,921.8
2018-11-20T09:41:39.919Z,921.8
2018-11-20T09:42:39.836Z,921.8
2018-11-20T09:43:39.725Z,921.7
2018-11-20T09:44:39.622Z,921.7
2018-11-20T09:45:39.527Z,921.8
2018-11-20T09:46:40.061Z,921.8
2018-11-20T09:47:39.976Z,921.8
2018-11-20T09:48:40.328Z,921.9
2018-11-20T09:49:40.067Z,921.8
2018-11-20T09:50:39.802Z,921.9
2018-11-20T09:51:39.543Z,921.8
2018-11-20T09:52:39.715Z,921.9
2018-11-20T09:53:39.453Z,921.7
2018-11-20T09:54:39.190Z,921.9
2018-11-20T09:55:38.924Z,921.9
2018-11-20T09:56:38.666Z,922
2018-11-20T09:57:38.426Z,921.9
2018-11-20T09:58:38.747Z,921.9
2018-11-20T09:59:39.044Z,921.8
2018-11-20T10:00:38.972Z,921.8
2018-11-20T10:01:38.898Z,921.8
2018-11-20T10:02:38.826Z,921.8
2018-11-20T10:03:39.306Z,921.9
2018-11-20T10:04:39.276Z,921.8
2018-11-20T10:05:39.173Z,921.8
2018-11-20T10:06:39.089Z,921.9
2018-11-20T10:07:38.999Z,921.8
2018-11-20T10:08:39.486Z,921.8
2018-11-20T10:09:39.226Z,921.7
2018-11-20T10:10:38.962Z,920.4
2018-11-20T10:11:38.703Z,921.7
2018-11-20T10:12:38.436Z,921.8
2018-11-20T10:13:38.200Z,921.7
2018-11-20T10:14:38.254Z,921.8
2018-11-20T10:15:38.068Z,921.7
2018-11-20T10:16:37.802Z,921.8
2018-11-20T10:17:37.542Z,921.8
2018-11-20T10:18:37.886Z,921.7
2018-11-20T10:19:37.822Z,921.9
2018-11-20T10:20:37.731Z,921.9
2018-11-20T10:21:38.627Z,921.7
2018-11-20T10:22:38.608Z,921.8
2018-11-20T10:23:38.722Z,921.8
2018-11-20T10:24:39.089Z,921.7
2018-11-20T10:25:40.306Z,921.7
2018-11-20T10:26:40.360Z,921.7
2018-11-20T10:27:40.260Z,921.7
2018-11-20T10:28:40.611Z,921.5
2018-11-20T10:29:40.540Z,921.7
2018-11-20T10:30:40.428Z,921.6
2018-11-20T10:31:40.330Z,921.5
2018-11-20T10:32:40.234Z,921.5
2018-11-20T10:33:40.132Z,921.5
2018-11-20T10:34:40.642Z,921.7
2018-11-20T10:35:41.634Z,921.7
2018-11-20T10:36:41.621Z,921.7
2018-11-20T10:37:41.521Z,921.8
2018-11-20T10:38:41.864Z,921.7
2018-11-20T10:39:41.768Z,921.7
2018-11-20T10:40:42.666Z,921.7
2018-11-20T10:41:42.655Z,921.8
2018-11-20T10:42:42.569Z,921.9
2018-11-20T10:43:42.484Z,921.8
2018-11-20T10:44:42.384Z,921.9
2018-11-20T10:45:42.303Z,922
2018-11-20T10:46:43.112Z,921.9
2018-11-20T10:47:43.105Z,921.5
2018-11-20T10:48:43.455Z,921.9
2018-11-20T10:49:43.367Z,921.9
2018-11-20T10:50:43.288Z,922
2018-11-20T10:51:43.182Z,921.9
2018-11-20T10:52:44.029Z,921.8
2018-11-20T10:53:43.956Z,921.8
2018-11-20T10:54:43.852Z,921.7
2018-11-20T10:55:43.763Z,921.6
2018-11-20T10:56:43.691Z,921.8
2018-11-20T10:57:43.580Z,921.7
2018-11-20T10:58:43.907Z,921.8
2018-11-20T10:59:44.709Z,921.8
2018-11-20T11:00:44.709Z,921.7
2018-11-20T11:01:44.646Z,921.7
2018-11-20T11:02:44.548Z,921.8
2018-11-20T11:03:44.450Z,921.9
2018-11-20T11:04:44.608Z,921.8
2018-11-20T11:05:44.508Z,921.8
2018-11-20T11:06:47.133Z,921.9
2018-11-20T11:07:48.805Z,921.9
2018-11-20T11:08:49.636Z,921.8
2018-11-20T11:09:49.536Z,921.8
2018-11-20T11:10:49.432Z,921.8
2018-11-20T11:11:49.748Z,921.8
2018-11-20T11:12:50.380Z,921.9
2018-11-20T11:13:50.300Z,921.8
2018-11-20T11:14:50.607Z,921.8
2018-11-20T11:15:50.497Z,921.8
2018-11-20T11:16:50.424Z,921.9
2018-11-20T11:17:50.332Z,921.9
2018-11-20T11:18:51.149Z,921.8
2018-11-20T11:19:51.057Z,921.9
2018-11-20T11:20:51.630Z,921.9
2018-11-20T11:21:51.603Z,921.9
2018-11-20T11:22:51.546Z,921.8
2018-11-20T11:23:51.476Z,921.8
2018-11-20T11:24:51.365Z,921.8
2018-11-20T11:25:51.267Z,921.8
2018-11-20T11:26:51.186Z,921.9
2018-11-20T11:27:51.100Z,921.9
2018-11-20T11:28:52.441Z,921.9
2018-11-20T11:29:52.344Z,921.9
2018-11-20T11:30:52.231Z,921.9
2018-11-20T11:31:52.150Z,921.8
2018-11-20T11:32:52.077Z,921.9
2018-11-20T11:33:51.983Z,921.8
2018-11-20T11:34:51.875Z,921.9
2018-11-20T11:35:51.789Z,922
2018-11-20T11:36:51.753Z,921.9
2018-11-20T11:37:51.646Z,921.9
2018-11-20T11:38:52.880Z,922
2018-11-20T11:39:52.768Z,920.1
2018-11-20T11:40:52.675Z,921.7
2018-11-20T11:41:52.590Z,921.8
2018-11-20T11:42:52.479Z,920.2
2018-11-20T11:43:52.405Z,922
2018-11-20T11:44:52.301Z,922
2018-11-20T11:45:52.208Z,922
2018-11-20T11:46:52.101Z,921.2
2018-11-20T11:47:52.001Z,922
2018-11-20T11:48:52.347Z,922
2018-11-20T11:49:52.270Z,922
2018-11-20T11:50:52.169Z,922
2018-11-20T11:51:52.065Z,922
2018-11-20T11:52:51.967Z,922
2018-11-20T11:53:51.881Z,922
2018-11-20T11:54:52.325Z,922.2
2018-11-20T11:55:52.255Z,921.9
2018-11-20T11:56:52.163Z,920.4
2018-11-20T11:57:52.060Z,921.9
2018-11-20T11:58:52.395Z,922.1
2018-11-20T11:59:52.313Z,922
2018-11-20T12:00:52.230Z,922
2018-11-20T12:03:51.541Z,922.1
2018-11-20T12:04:51.425Z,922.1
2018-11-20T12:05:56.339Z,922
2018-11-20T12:06:56.240Z,922.1
2018-11-20T12:07:56.145Z,921.3
2018-11-20T12:08:56.485Z,922.1
2018-11-20T12:09:56.395Z,922.1
2018-11-20T12:10:56.309Z,922.1
2018-11-20T12:11:56.206Z,922.1
2018-11-20T12:12:56.123Z,922.2
2018-11-20T12:13:56.013Z,922.2
2018-11-20T12:14:55.925Z,922.2
2018-11-20T12:15:55.829Z,922.1
2018-11-20T12:16:55.761Z,922.1
2018-11-20T12:17:55.669Z,922
2018-11-20T12:18:56.975Z,922.1
2018-11-20T12:19:56.897Z,922.2
2018-11-20T12:20:56.793Z,922.2
2018-11-20T12:21:56.706Z,922.2
2018-11-20T12:22:56.603Z,922.2
2018-11-20T12:23:56.516Z,922.3
2018-11-20T12:24:56.407Z,922.3
2018-11-20T12:25:56.293Z,922.3
2018-11-20T12:26:56.167Z,922.2
2018-11-20T12:27:59.541Z,922.3
2018-11-20T12:28:59.866Z,922.2
2018-11-20T12:29:59.599Z,922.2
2018-11-20T12:30:59.329Z,922.3
2018-11-20T12:31:59.084Z,922.1
2018-11-20T12:32:58.848Z,922
2018-11-20T12:34:00.828Z,922.2
2018-11-20T12:35:00.557Z,922.2
2018-11-20T12:36:00.314Z,920.8
2018-11-20T12:37:00.062Z,922.2
2018-11-20T12:38:01.690Z,922.2
2018-11-20T12:39:03.559Z,922.2
2018-11-20T12:40:03.478Z,922.2
2018-11-20T12:41:03.374Z,922.3
2018-11-20T12:42:05.643Z,922.2
2018-11-20T12:43:05.569Z,922
2018-11-20T12:44:06.918Z,920.5
2018-11-20T12:45:06.834Z,922.2
2018-11-20T12:46:06.755Z,922.2
2018-11-20T12:47:15.581Z,922.3
2018-11-20T12:48:15.512Z,922.2
2018-11-20T12:49:19.819Z,922.2
2018-11-20T12:50:19.562Z,922.2
2018-11-20T12:51:19.285Z,922.2
2018-11-20T12:52:19.035Z,922.1
2018-11-20T12:53:22.111Z,922.1
2018-11-20T12:54:21.844Z,922.2
2018-11-20T12:55:21.574Z,922.2
2018-11-20T12:56:21.299Z,922.2
2018-11-20T12:57:21.052Z,921.8
2018-11-20T12:58:20.815Z,922
2018-11-20T12:59:21.136Z,922
2018-11-20T13:00:21.042Z,922